Time;durP1;ratioP1;P1;durP2;ratioP2;P2;SDS_P1;SDS_P2;PMS_P1;PMS_P2;Temp;Humidity;BMP_temperature;BMP_pressure;BME280_temperature;BME280_humidity;BME280_pressure;Samples;Min_cycle;Max_cycle;Signal;HPM_P1;HPM_P2
2020/12/13 00:01:53;;;;;;;189.77;87.12;;;;;;;-1.64;87.69;97299.73;1854379;76;21180;-79
2020/12/13 00:04:19;;;;;;;186.73;83.82;;;;;;;-1.61;87.73;97299.31;1854376;76;21166;-79
2020/12/13 00:06:45;;;;;;;189.32;91.30;;;;;;;-1.61;87.80;97301.16;1823663;76;21758;-77
2020/12/13 00:09:10;;;;;;;193.40;89.50;;;;;;;-1.58;87.45;97302.03;1854381;76;20927;-79
2020/12/13 00:11:37;;;;;;;209.10;93.17;;;;;;;-1.59;87.52;97303.88;1854257;76;21079;-79
2020/12/13 00:14:03;;;;;;;199.47;91.12;;;;;;;-1.58;87.58;97302.84;1854447;76;21192;-79
2020/12/13 00:16:29;;;;;;;179.27;80.53;;;;;;;-1.56;87.43;97303.95;1796781;76;21879;-79
2020/12/13 00:18:55;;;;;;;238.20;102.00;;;;;;;-1.58;87.00;97305.50;1854467;76;21227;-77
2020/12/13 00:21:26;;;;;;;191.95;86.70;;;;;;;-1.65;87.26;97308.73;1854630;77;20958;-79
2020/12/13 00:23:49;;;;;;;184.60;78.37;;;;;;;-1.68;87.56;97307.05;1853923;76;21530;-76
2020/12/13 00:26:15;;;;;;;178.85;81.53;;;;;;;-1.66;87.59;97307.11;1854723;77;21229;-79
2020/12/13 00:28:40;;;;;;;174.10;82.02;;;;;;;-1.64;87.37;97315.67;1854598;76;21463;-76
2020/12/13 00:31:13;;;;;;;187.37;78.70;;;;;;;-1.67;87.77;97316.12;1854728;76;20864;-76
2020/12/13 00:33:39;;;;;;;168.52;75.32;;;;;;;-1.64;87.24;97315.67;1823650;77;22017;-79
2020/12/13 00:36:05;;;;;;;177.87;79.25;;;;;;;-1.63;87.08;97315.16;1823926;77;21173;-79
2020/12/13 00:38:31;;;;;;;178.32;78.92;;;;;;;-1.64;87.52;97324.16;1854565;76;21184;-79
2020/12/13 00:40:57;;;;;;;205.30;86.60;;;;;;;-1.58;87.64;97322.77;1854494;76;20901;-76
2020/12/13 00:43:23;;;;;;;184.25;81.42;;;;;;;-1.53;87.84;97320.80;1854570;76;21022;-79
2020/12/13 00:45:49;;;;;;;198.15;84.07;;;;;;;-1.54;87.95;97327.13;1854420;76;20900;-76
2020/12/13 00:48:14;;;;;;;163.55;72.45;;;;;;;-1.52;87.75;97335.19;1823813;77;20948;-78
2020/12/13 00:50:40;;;;;;;175.57;72.40;;;;;;;-1.50;87.16;97333.13;1823905;77;21351;-76
2020/12/13 00:53:06;;;;;;;195.25;82.85;;;;;;;-1.56;86.93;97336.64;1854453;76;20904;-76
2020/12/13 00:55:32;;;;;;;216.42;91.10;;;;;;;-1.65;87.19;97336.62;1823733;77;21031;-78
2020/12/13 00:57:58;;;;;;;206.43;87.92;;;;;;;-1.62;87.59;97335.38;1854617;76;21091;-79
2020/12/13 01:00:25;;;;;;;196.15;88.22;;;;;;;-1.58;87.60;97340.05;1854560;76;20912;-76
2020/12/13 01:02:52;;;;;;;204.53;86.42;;;;;;;-1.57;88.19;97332.89;1854506;76;21225;-79
2020/12/13 01:05:19;;;;;;;197.60;84.83;;;;;;;-1.55;87.72;97334.28;1854595;76;21122;-78
2020/12/13 01:07:45;;;;;;;204.93;89.50;;;;;;;-1.54;87.59;97333.28;1854444;76;21106;-79
2020/12/13 01:10:11;;;;;;;190.47;84.80;;;;;;;-1.52;87.63;97334.37;1854601;76;21007;-76
2020/12/13 01:12:40;;;;;;;201.77;86.30;;;;;;;-1.48;87.51;97338.21;1854648;76;20936;-79
2020/12/13 01:15:06;;;;;;;193.47;81.55;;;;;;;-1.47;87.54;97338.50;1854557;77;21977;-79
2020/12/13 01:17:32;;;;;;;210.97;85.85;;;;;;;-1.47;87.34;97335.84;1854370;76;20919;-78
2020/12/13 01:19:58;;;;;;;188.45;78.05;;;;;;;-1.51;87.25;97334.67;1854503;77;21006;-79
2020/12/13 01:22:24;;;;;;;189.52;79.65;;;;;;;-1.53;87.22;97336.23;1823459;77;20877;-79
2020/12/13 01:24:50;;;;;;;190.15;82.35;;;;;;;-1.54;87.15;97340.41;1854638;76;21545;-79
2020/12/13 01:27:16;;;;;;;201.30;90.75;;;;;;;-1.59;87.27;97341.59;1854516;76;21451;-77
2020/12/13 01:29:42;;;;;;;191.03;85.15;;;;;;;-1.52;87.39;97342.36;1854436;76;20908;-76
2020/12/13 01:32:08;;;;;;;210.65;89.25;;;;;;;-1.49;87.34;97346.70;1854538;76;21586;-77
2020/12/13 01:34:34;;;;;;;190.55;82.12;;;;;;;-1.46;87.44;97345.44;1854532;76;20963;-79
2020/12/13 01:37:01;;;;;;;195.60;80.75;;;;;;;-1.44;87.84;97347.39;1854523;76;21587;-78
2020/12/13 01:39:27;;;;;;;189.43;79.67;;;;;;;-1.42;88.10;97349.30;1854570;77;21618;-80
2020/12/13 01:41:58;;;;;;;176.22;77.95;;;;;;;-1.38;87.82;97351.80;1854518;76;21142;-76
2020/12/13 01:44:34;;;;;;;184.13;78.37;;;;;;;-1.35;87.85;97355.38;1824103;77;21114;-77
2020/12/13 01:47:01;;;;;;;178.60;76.62;;;;;;;-1.34;87.76;97353.01;1824627;76;21151;-77
2020/12/13 01:49:31;;;;;;;196.37;74.62;;;;;;;-1.35;87.16;97350.57;1823779;77;21115;-75
2020/12/13 01:52:38;;;;;;;195.72;82.57;;;;;;;-1.39;87.28;97350.70;1854283;76;21145;-76
2020/12/13 01:54:22;;;;;;;203.92;88.10;;;;;;;-1.42;87.80;97349.30;1793832;77;21098;-76
2020/12/13 01:56:55;;;;;;;206.47;87.12;;;;;;;-1.39;88.18;97350.18;1854537;77;20990;-80
2020/12/13 01:59:21;;;;;;;207.35;87.82;;;;;;;-1.35;88.10;97350.57;1854524;76;21095;-76
2020/12/13 02:01:50;;;;;;;196.47;80.90;;;;;;;-1.32;88.13;97346.95;1854686;76;21173;-80
2020/12/13 02:04:21;;;;;;;201.15;81.82;;;;;;;-1.31;88.26;97344.58;1823968;77;21169;-78
2020/12/13 02:06:53;;;;;;;181.30;82.22;;;;;;;-1.33;88.46;97346.66;1823616;77;21148;-76
2020/12/13 02:09:22;;;;;;;189.00;79.55;;;;;;;-1.28;88.04;97351.30;1854476;76;21125;-79
2020/12/13 02:11:49;;;;;;;182.27;77.72;;;;;;;-1.31;88.26;97349.09;1824063;77;21197;-79
2020/12/13 02:14:15;;;;;;;188.72;83.67;;;;;;;-1.31;88.05;97341.11;1854429;76;21019;-75
2020/12/13 02:16:44;;;;;;;178.75;69.70;;;;;;;-1.32;87.82;97344.28;1823780;77;21344;-78
2020/12/13 02:19:17;;;;;;;172.68;71.87;;;;;;;-1.30;87.82;97350.19;1854381;76;21046;-76
2020/12/13 02:21:50;;;;;;;175.00;76.33;;;;;;;-1.32;87.43;97344.28;1825226;77;21106;-76
2020/12/13 02:24:16;;;;;;;161.40;74.47;;;;;;;-1.36;88.14;97344.97;1854274;76;21169;-75
2020/12/13 02:26:43;;;;;;;177.32;73.92;;;;;;;-1.35;88.42;97343.92;1854513;76;21161;-78
2020/12/13 02:29:08;;;;;;;172.25;75.08;;;;;;;-1.32;88.69;97347.47;1854565;76;21357;-75
2020/12/13 02:31:34;;;;;;;163.57;65.67;;;;;;;-1.26;88.55;97350.58;1854486;76;20912;-75
2020/12/13 02:34:02;;;;;;;173.02;76.45;;;;;;;-1.26;87.55;97348.73;1854472;76;21456;-75
2020/12/13 02:36:31;;;;;;;173.38;69.05;;;;;;;-1.32;87.81;97349.61;1824006;77;21086;-75
2020/12/13 02:38:58;;;;;;;173.35;73.02;;;;;;;-1.30;88.32;97347.53;1854498;76;21543;-79
2020/12/13 02:41:24;;;;;;;164.35;69.72;;;;;;;-1.32;88.87;97356.25;1854548;76;21054;-76
2020/12/13 02:43:50;;;;;;;168.87;73.33;;;;;;;-1.26;88.60;97356.70;1854376;76;21197;-78
2020/12/13 02:46:16;;;;;;;168.72;72.20;;;;;;;-1.22;87.89;97354.41;1854559;76;20872;-77
2020/12/13 02:48:42;;;;;;;152.38;63.40;;;;;;;-1.21;87.98;97354.70;1854437;76;20970;-78
2020/12/13 02:51:08;;;;;;;168.95;71.67;;;;;;;-1.24;87.40;97351.98;1854432;77;20932;-79
2020/12/13 02:53:34;;;;;;;165.52;73.02;;;;;;;-1.38;88.55;97357.64;1823751;77;21384;-78
2020/12/13 02:55:59;;;;;;;163.75;70.30;;;;;;;-1.40;89.09;97357.86;1854504;76;20983;-76
2020/12/13 02:58:25;;;;;;;164.93;72.05;;;;;;;-1.40;89.42;97353.06;1854457;76;20899;-78
2020/12/13 03:00:53;;;;;;;152.30;65.45;;;;;;;-1.33;88.40;97353.30;1854457;77;21026;-78
2020/12/13 03:03:19;;;;;;;135.97;62.58;;;;;;;-1.33;87.73;97356.47;1854036;76;21110;-76
2020/12/13 03:05:45;;;;;;;155.45;71.15;;;;;;;-1.36;87.65;97360.91;1854578;77;22002;-76
2020/12/13 03:08:11;;;;;;;173.57;74.70;;;;;;;-1.39;87.87;97357.34;1854388;76;20896;-76
2020/12/13 03:10:37;;;;;;;169.75;78.12;;;;;;;-1.43;89.40;97355.14;1854531;77;21019;-79
2020/12/13 03:13:03;;;;;;;153.35;66.47;;;;;;;-1.33;89.50;97360.46;1854461;76;20889;-76
2020/12/13 03:15:29;;;;;;;150.42;68.47;;;;;;;-1.27;88.20;97364.39;1854597;77;20998;-78
2020/12/13 03:17:55;;;;;;;155.12;67.17;;;;;;;-1.27;88.07;97371.03;1854546;76;21597;-78
2020/12/13 03:20:20;;;;;;;160.10;71.70;;;;;;;-1.26;88.03;97367.86;1854489;77;20891;-77
2020/12/13 03:22:46;;;;;;;160.00;75.62;;;;;;;-1.23;88.83;97367.41;1823710;77;20967;-78
2020/12/13 03:25:12;;;;;;;151.72;66.97;;;;;;;-1.16;88.66;97374.80;1854446;77;20899;-79
2020/12/13 03:27:38;;;;;;;143.52;67.17;;;;;;;-1.14;87.93;97378.05;1854557;76;21042;-76
2020/12/13 03:30:04;;;;;;;159.18;68.57;;;;;;;-1.19;87.91;97377.91;1854474;76;21252;-78
2020/12/13 03:32:30;;;;;;;164.30;70.32;;;;;;;-1.20;88.14;97374.45;1854346;76;20995;-77
2020/12/13 03:34:58;;;;;;;153.90;70.55;;;;;;;-1.13;88.22;97383.66;1854595;77;20935;-79
2020/12/13 03:37:23;;;;;;;149.45;67.37;;;;;;;-1.09;88.05;97384.86;1854167;77;21094;-77
2020/12/13 03:39:49;;;;;;;146.32;67.22;;;;;;;-1.04;88.22;97385.52;1854452;76;20904;-79
2020/12/13 03:42:15;;;;;;;130.97;58.00;;;;;;;-0.96;88.35;97389.21;1854458;76;21395;-76
2020/12/13 03:44:41;;;;;;;144.50;60.80;;;;;;;-0.95;87.79;97381.52;1854353;76;20983;-78
2020/12/13 03:47:07;;;;;;;155.75;60.60;;;;;;;-0.98;87.51;97388.63;1823788;77;21549;-76
2020/12/13 03:49:32;;;;;;;152.62;67.17;;;;;;;-1.01;87.48;97397.05;1854418;76;20963;-78
2020/12/13 03:51:58;;;;;;;147.85;66.97;;;;;;;-1.03;87.49;97394.59;1854418;77;21022;-80
2020/12/13 03:54:24;;;;;;;157.15;68.22;;;;;;;-1.04;87.47;97398.29;1854464;76;21285;-79
2020/12/13 03:56:50;;;;;;;145.62;69.32;;;;;;;-1.06;87.90;97396.38;1823874;77;20908;-79
2020/12/13 03:59:16;;;;;;;143.43;64.90;;;;;;;-0.97;88.09;97398.23;1854565;76;20935;-79
2020/12/13 04:01:42;;;;;;;167.35;72.12;;;;;;;-1.00;88.73;97396.83;1854545;77;21724;-79
2020/12/13 04:04:08;;;;;;;175.55;75.78;;;;;;;-0.99;88.45;97395.80;1854551;76;21103;-78
2020/12/13 04:06:34;;;;;;;177.05;76.20;;;;;;;-0.97;88.43;97396.89;1854666;77;21184;-77
2020/12/13 04:09:00;;;;;;;179.55;75.28;;;;;;;-1.02;88.89;97398.91;1854555;76;20872;-79
2020/12/13 04:11:26;;;;;;;166.53;67.82;;;;;;;-0.97;88.48;97398.23;1854630;76;20936;-78
2020/12/13 04:13:52;;;;;;;167.70;73.25;;;;;;;-0.95;87.76;97404.94;1854549;76;20884;-78
2020/12/13 04:16:17;;;;;;;161.40;69.67;;;;;;;-1.04;87.94;97404.13;1854760;76;20972;-76
2020/12/13 04:18:43;;;;;;;175.32;72.60;;;;;;;-1.03;87.82;97407.89;1823917;77;21237;-79
2020/12/13 04:21:09;;;;;;;167.35;74.55;;;;;;;-1.05;87.72;97409.97;1854557;76;21606;-76
2020/12/13 04:23:35;;;;;;;171.25;73.57;;;;;;;-1.01;88.00;97413.02;1854372;76;20908;-77
2020/12/13 04:26:01;;;;;;;163.50;70.90;;;;;;;-0.97;88.08;97416.33;1854612;77;20936;-78
2020/12/13 04:28:27;;;;;;;171.50;69.12;;;;;;;-0.91;88.35;97413.31;1823780;77;21526;-78
2020/12/13 04:30:53;;;;;;;159.63;72.40;;;;;;;-0.79;88.32;97422.69;1854552;77;21241;-76
2020/12/13 04:33:19;;;;;;;152.20;71.30;;;;;;;-0.76;88.08;97416.95;1823772;77;20979;-79
2020/12/13 04:35:45;;;;;;;165.40;72.58;;;;;;;-0.71;88.03;97420.55;1854652;76;20896;-79
2020/12/13 04:38:10;;;;;;;178.82;78.97;;;;;;;-0.72;87.80;97416.26;1854557;76;20975;-79
2020/12/13 04:40:36;;;;;;;153.60;73.05;;;;;;;-0.69;88.07;97417.13;1854638;76;20916;-77
2020/12/13 04:43:02;;;;;;;161.55;69.17;;;;;;;-0.63;88.06;97423.42;1854521;76;21232;-76
2020/12/13 04:45:29;;;;;;;143.25;66.05;;;;;;;-0.60;87.87;97421.16;1854575;76;20932;-76
2020/12/13 04:48:09;;;;;;;128.45;62.10;;;;;;;-0.62;87.81;97417.06;1854471;76;21165;-79
2020/12/13 04:50:38;;;;;;;128.70;61.28;;;;;;;-0.66;87.78;97403.92;1854761;76;21483;-78
2020/12/13 04:53:06;;;;;;;136.25;58.13;;;;;;;-0.54;87.38;97423.94;1854229;76;21137;-76
2020/12/13 04:55:36;;;;;;;152.57;69.83;;;;;;;-0.59;87.31;97425.95;1824445;77;21258;-78
2020/12/13 04:58:02;;;;;;;140.20;66.12;;;;;;;-0.62;87.33;97429.04;1852888;76;21050;-76
2020/12/13 05:00:28;;;;;;;151.15;64.85;;;;;;;-0.64;87.57;97425.80;1854673;76;21119;-76
2020/12/13 05:02:54;;;;;;;153.82;71.30;;;;;;;-0.62;87.97;97426.38;1822281;76;20888;-76
2020/12/13 05:05:21;;;;;;;156.87;73.20;;;;;;;-0.56;88.10;97422.84;1795738;77;20884;-76
2020/12/13 05:07:46;;;;;;;156.40;65.60;;;;;;;-0.53;88.04;97425.56;1854562;76;21365;-76
2020/12/13 05:10:12;;;;;;;142.40;60.58;;;;;;;-0.57;87.82;97423.36;1854452;76;21018;-78
2020/12/13 05:12:38;;;;;;;143.72;68.12;;;;;;;-0.61;87.33;97430.14;1854527;77;20951;-75
2020/12/13 05:15:04;;;;;;;162.12;68.22;;;;;;;-0.62;87.32;97426.38;1854410;76;20983;-78
2020/12/13 05:17:34;;;;;;;149.45;67.05;;;;;;;-0.68;87.36;97433.42;1854493;76;20953;-75
2020/12/13 05:20:00;;;;;;;169.40;74.27;;;;;;;-0.64;87.79;97435.11;1824044;77;22137;-78
2020/12/13 05:22:26;;;;;;;156.57;76.47;;;;;;;-0.63;87.84;97438.88;1854475;77;20935;-76
2020/12/13 05:24:52;;;;;;;153.07;71.80;;;;;;;-0.62;87.96;97433.03;1823962;77;20959;-78
2020/12/13 05:27:23;;;;;;;163.70;76.62;;;;;;;-0.59;87.59;97440.59;1854572;76;21026;-78
2020/12/13 05:29:53;;;;;;;191.50;77.78;;;;;;;-0.54;87.79;97443.90;1795651;77;21110;-78
2020/12/13 05:32:22;;;;;;;185.60;80.12;;;;;;;-0.51;87.75;97439.45;1854640;75;21573;-79
2020/12/13 05:34:48;;;;;;;179.35;83.90;;;;;;;-0.48;87.88;97448.34;1854306;76;21130;-76
2020/12/13 05:37:15;;;;;;;154.12;69.95;;;;;;;-0.36;88.01;97457.19;1854478;76;21146;-77
2020/12/13 05:39:52;;;;;;;158.32;74.87;;;;;;;-0.35;87.41;97452.16;1854466;76;21015;-77
2020/12/13 05:42:36;;;;;;;157.93;71.22;;;;;;;-0.36;87.59;97455.34;1848476;77;21141;-75
2020/12/13 05:45:12;;;;;;;159.27;75.65;;;;;;;-0.31;87.76;97454.69;1854130;76;21026;-77
2020/12/13 05:52:48;;;;;;;155.67;75.05;;;;;;;-0.18;87.55;97461.16;1854380;77;21153;-76
2020/12/13 05:55:14;;;;;;;153.15;71.90;;;;;;;-0.07;87.68;97469.74;1824238;77;21051;-77
2020/12/13 05:57:40;;;;;;;164.70;73.02;;;;;;;-0.09;87.25;97469.13;1823940;77;21156;-76
2020/12/13 06:00:08;;;;;;;179.00;80.42;;;;;;;-0.11;87.18;97467.22;1854469;76;21554;-77
2020/12/13 06:02:36;;;;;;;168.87;78.02;;;;;;;-0.13;87.19;97476.48;1854404;76;21106;-79
2020/12/13 06:05:04;;;;;;;166.12;76.35;;;;;;;-0.19;86.84;97478.70;1824258;77;20999;-79
2020/12/13 06:07:35;;;;;;;191.18;83.90;;;;;;;-0.22;86.83;97476.50;1854503;76;21114;-77
2020/12/13 06:10:06;;;;;;;172.25;78.55;;;;;;;-0.27;86.87;97480.33;1854519;76;21217;-77
2020/12/13 06:12:33;;;;;;;167.35;73.50;;;;;;;-0.27;87.09;97483.80;1854425;76;21042;-76
2020/12/13 06:15:00;;;;;;;158.65;71.17;;;;;;;-0.29;86.92;97481.38;1823701;77;21098;-76
2020/12/13 06:17:27;;;;;;;160.88;70.37;;;;;;;-0.30;86.73;97485.59;1824011;77;21115;-76
2020/12/13 06:19:53;;;;;;;173.02;72.53;;;;;;;-0.36;86.67;97492.61;1823736;77;21078;-76
2020/12/13 06:22:21;;;;;;;161.92;74.70;;;;;;;-0.38;86.70;97493.36;1854365;76;21947;-78
2020/12/13 06:24:48;;;;;;;175.45;75.62;;;;;;;-0.39;86.77;97491.73;1854316;76;21134;-76
2020/12/13 06:27:20;;;;;;;170.00;74.87;;;;;;;-0.35;87.02;97494.76;1854400;76;21149;-78
2020/12/13 06:29:46;;;;;;;162.55;71.30;;;;;;;-0.33;87.06;97496.19;1854451;76;21138;-77
2020/12/13 06:32:12;;;;;;;163.72;76.55;;;;;;;-0.29;87.16;97492.02;1795574;77;21228;-76
2020/12/13 06:34:44;;;;;;;166.00;79.40;;;;;;;-0.20;87.32;97488.54;1854401;76;21225;-78
2020/12/13 06:37:10;;;;;;;161.62;78.62;;;;;;;-0.11;87.42;97490.38;1824119;77;21137;-77
2020/12/13 06:39:36;;;;;;;180.55;83.95;;;;;;;-0.12;87.11;97493.56;1854405;76;21218;-79
2020/12/13 06:42:04;;;;;;;181.18;82.42;;;;;;;-0.15;87.16;97496.69;1854438;77;21822;-78
2020/12/13 06:44:30;;;;;;;179.60;81.08;;;;;;;-0.12;87.24;97511.39;1854660;76;26242;-77
2020/12/13 06:46:56;;;;;;;181.18;80.67;;;;;;;-0.07;87.26;97503.03;1797114;77;21097;-78
2020/12/13 06:49:22;;;;;;;171.53;78.80;;;;;;;-0.05;87.09;97503.63;1854429;76;21494;-78
2020/12/13 06:51:48;;;;;;;183.00;87.02;;;;;;;-0.03;86.93;97506.05;1854427;77;21050;-77
2020/12/13 06:54:18;;;;;;;163.03;75.12;;;;;;;-0.03;87.01;97514.05;1854421;76;21034;-78
2020/12/13 06:56:46;;;;;;;154.45;78.35;;;;;;;-0.04;86.76;97518.56;1854455;77;21153;-77
2020/12/13 06:59:12;;;;;;;184.93;86.17;;;;;;;-0.09;86.74;97517.08;1854402;76;21969;-76
2020/12/13 07:01:43;;;;;;;176.85;80.45;;;;;;;-0.07;86.88;97515.55;1854339;76;21150;-76
2020/12/13 07:04:34;;;;;;;166.77;76.25;;;;;;;-0.07;86.67;97519.54;1854543;76;21102;-78
2020/12/13 07:07:00;;;;;;;174.87;80.72;;;;;;;-0.07;86.63;97524.34;1853854;77;21614;-77
2020/12/13 07:09:28;;;;;;;176.00;87.97;;;;;;;-0.15;86.77;97527.31;1854762;76;21133;-76
2020/12/13 07:11:54;;;;;;;185.78;88.80;;;;;;;-0.13;87.04;97522.57;1854296;76;21867;-79
2020/12/13 07:14:22;;;;;;;178.40;93.65;;;;;;;-0.09;87.00;97530.39;1823561;77;21047;-78
2020/12/13 07:16:57;;;;;;;190.20;88.95;;;;;;;0.01;87.17;97537.88;1824589;77;21150;-78
2020/12/13 07:19:18;;;;;;;183.60;81.80;;;;;;;0.02;86.95;97530.18;1796574;77;21559;-76
2020/12/13 07:21:44;;;;;;;162.03;73.28;;;;;;;-0.01;86.57;97534.61;1854374;76;21019;-78
2020/12/13 07:24:11;;;;;;;162.53;76.57;;;;;;;-0.01;86.50;97535.94;1854370;76;22051;-76
2020/12/13 07:26:38;;;;;;;171.37;78.92;;;;;;;-0.01;86.54;97535.94;1854277;76;21570;-77
2020/12/13 07:29:14;;;;;;;171.55;75.75;;;;;;;0.03;86.64;97538.98;1854373;76;21447;-76
2020/12/13 07:31:37;;;;;;;189.07;89.75;;;;;;;0.03;86.58;97541.66;1798265;77;21063;-76
2020/12/13 07:34:05;;;;;;;;;;;;;;;0.04;86.54;97539.28;1827445;77;21022;-76
2020/12/13 07:36:32;;;;;;;186.25;85.60;;;;;;;-0.01;86.48;97542.59;1822977;77;21412;-78
2020/12/13 07:39:00;;;;;;;185.65;88.58;;;;;;;-0.04;86.91;97549.20;1854284;76;21030;-78
2020/12/13 07:41:26;;;;;;;169.47;71.25;;;;;;;0.01;86.96;97556.53;1822900;77;21118;-77
2020/12/13 07:44:08;;;;;;;107.37;54.33;;;;;;;0.03;86.70;97553.64;1854380;76;20892;-78
2020/12/13 07:46:34;;;;;;;130.20;58.95;;;;;;;-0.01;86.66;97548.73;1854581;77;21423;-79
2020/12/13 07:49:12;;;;;;;86.70;44.13;;;;;;;0.02;86.95;97548.02;1854424;76;21424;-77
2020/12/13 07:51:40;;;;;;;140.80;58.60;;;;;;;0.05;86.51;97548.89;1854454;76;21550;-77
2020/12/13 07:54:19;;;;;;;140.25;61.98;;;;;;;0.07;86.65;97551.62;1854457;76;21447;-77
2020/12/13 07:56:58;;;;;;;64.15;33.55;;;;;;;0.18;86.87;97553.55;1854639;77;21094;-79
2020/12/13 07:59:28;;;;;;;74.22;33.73;;;;;;;0.22;86.44;97553.90;1853929;76;21468;-76
2020/12/13 08:01:56;;;;;;;56.35;28.67;;;;;;;0.23;86.47;97559.52;1854433;77;21162;-78
2020/12/13 08:04:39;;;;;;;48.80;26.62;;;;;;;0.25;86.63;97561.44;1854312;76;21094;-78
2020/12/13 08:07:10;;;;;;;67.40;36.13;;;;;;;0.26;86.46;97563.91;1854392;77;21146;-77
2020/12/13 08:09:42;;;;;;;80.50;34.63;;;;;;;0.32;86.66;97562.69;1853192;76;21669;-79
2020/12/13 08:12:09;;;;;;;60.08;31.75;;;;;;;0.33;86.07;97567.79;1854524;76;21118;-79
2020/12/13 08:14:34;;;;;;;76.75;38.85;;;;;;;0.26;85.51;97567.09;1854369;76;21295;-75
2020/12/13 08:17:00;;;;;;;92.15;43.33;;;;;;;0.18;85.27;97564.20;1854351;76;21035;-78
2020/12/13 08:19:43;;;;;;;65.20;34.00;;;;;;;0.05;85.54;97563.55;1854433;76;21608;-75
2020/12/13 08:22:19;;;;;;;48.73;22.70;;;;;;;0.08;85.77;97568.42;1854466;76;21578;-77
2020/12/13 08:24:44;;;;;;;43.98;20.35;;;;;;;0.03;86.02;97573.62;1854252;76;21047;-77
2020/12/13 08:27:10;;;;;;;45.52;19.80;;;;;;;0.04;86.13;97574.72;1854500;76;21372;-79
2020/12/13 08:29:36;;;;;;;46.10;21.87;;;;;;;0.11;86.20;97579.46;1823653;77;20935;-80
2020/12/13 08:32:12;;;;;;;44.80;22.35;;;;;;;0.16;86.21;97580.11;1854461;76;20919;-79
2020/12/13 08:34:38;;;;;;;46.92;22.32;;;;;;;0.23;86.12;97583.51;1823644;77;21666;-79
2020/12/13 08:37:04;;;;;;;47.62;21.85;;;;;;;0.31;86.15;97589.05;1823558;77;20901;-75
2020/12/13 08:39:32;;;;;;;50.70;22.20;;;;;;;0.37;85.99;97588.16;1854314;76;21905;-75
2020/12/13 08:41:59;;;;;;;46.70;23.77;;;;;;;0.30;85.44;97584.77;1823703;77;21122;-75
2020/12/13 08:44:39;;;;;;;45.90;21.35;;;;;;;0.25;85.12;97590.23;1854522;76;21022;-75
2020/12/13 08:47:08;;;;;;;47.88;22.30;;;;;;;0.27;85.25;97588.70;1854387;76;21189;-76
2020/12/13 08:49:37;;;;;;;69.80;35.43;;;;;;;0.17;84.86;97592.39;1854761;76;21113;-76
2020/12/13 08:52:21;;;;;;;43.13;20.10;;;;;;;0.17;84.86;97592.39;1854180;77;21432;-76
2020/12/13 08:54:53;;;;;;;44.40;22.67;;;;;;;0.05;84.90;97597.66;1854526;76;21121;-76
2020/12/13 08:57:36;;;;;;;56.10;25.92;;;;;;;0.03;85.23;97599.73;1854408;76;21114;-79
2020/12/13 09:00:10;;;;;;;51.85;23.73;;;;;;;0.04;85.38;97596.55;1854386;76;21444;-77
2020/12/13 09:02:36;;;;;;;54.05;25.45;;;;;;;0.05;85.48;97608.84;1824006;77;21587;-76
2020/12/13 09:05:05;;;;;;;113.22;45.15;;;;;;;0.04;85.49;97610.69;1854619;76;22069;-76
2020/12/13 09:07:33;;;;;;;98.12;38.73;;;;;;;-0.06;85.61;97605.88;1854603;76;21082;-79
2020/12/13 09:10:17;;;;;;;80.83;35.80;;;;;;;-0.11;86.43;97605.72;1854718;76;21146;-78
2020/12/13 09:12:43;;;;;;;61.68;31.97;;;;;;;-0.02;86.49;97611.05;1854205;77;21118;-77
2020/12/13 09:15:17;;;;;;;73.00;32.00;;;;;;;0.10;85.96;97608.48;1854592;76;20896;-77
2020/12/13 09:17:58;;;;;;;108.63;46.18;;;;;;;0.12;85.78;97611.73;1854464;75;21161;-79
2020/12/13 09:20:29;;;;;;;80.22;36.85;;;;;;;0.12;85.68;97609.06;1823461;77;21063;-76
2020/12/13 09:23:10;;;;;;;137.65;52.17;;;;;;;0.09;85.86;97608.70;1853879;76;21131;-78
2020/12/13 09:25:42;;;;;;;74.60;33.98;;;;;;;0.18;85.64;97612.17;1854448;76;21110;-77
2020/12/13 09:28:08;;;;;;;71.40;30.97;;;;;;;0.17;85.77;97611.88;1852248;77;21110;-76
2020/12/13 09:30:34;;;;;;;68.92;31.62;;;;;;;0.23;85.78;97606.97;1823799;77;21257;-76
2020/12/13 09:33:00;;;;;;;102.58;56.58;;;;;;;0.33;85.97;97606.44;1854485;76;20900;-76
2020/12/13 09:35:31;;;;;;;192.50;74.25;;;;;;;0.42;85.80;97606.42;1854533;76;21577;-77
2020/12/13 09:37:58;;;;;;;185.28;71.05;;;;;;;0.42;85.73;97607.75;1854638;76;21522;-77
2020/12/13 09:40:24;;;;;;;134.07;58.98;;;;;;;0.42;85.78;97609.61;1854616;76;21459;-78
2020/12/13 09:42:50;;;;;;;129.45;70.35;;;;;;;0.47;85.52;97612.42;1854599;76;21190;-78
2020/12/13 09:45:16;;;;;;;78.62;35.75;;;;;;;0.41;85.53;97615.46;1854484;76;21038;-78
2020/12/13 09:47:42;;;;;;;62.08;31.35;;;;;;;0.44;85.21;97614.22;1854655;76;21006;-76
2020/12/13 09:50:08;;;;;;;104.15;43.98;;;;;;;0.38;85.23;97615.11;1854494;76;20888;-78
2020/12/13 09:52:34;;;;;;;72.17;33.70;;;;;;;0.39;84.97;97617.55;1823814;77;21873;-76
2020/12/13 09:55:00;;;;;;;62.70;29.90;;;;;;;0.33;84.65;97616.29;1854519;76;21386;-78
2020/12/13 09:57:26;;;;;;;62.90;35.73;;;;;;;0.26;85.00;97610.54;1854502;77;21050;-78
2020/12/13 09:59:52;;;;;;;55.10;30.50;;;;;;;0.26;85.31;97612.39;1854472;76;20909;-78
2020/12/13 10:02:17;;;;;;;54.70;28.07;;;;;;;0.33;85.47;97606.96;1854512;76;21283;-76
2020/12/13 10:04:43;;;;;;;56.95;31.17;;;;;;;0.36;85.30;97603.86;1854443;76;20904;-76
2020/12/13 10:09:38;;;;;;;124.25;51.10;;;;;;;0.44;85.45;97606.22;1854533;76;21289;-76
2020/12/13 10:12:04;;;;;;;107.12;50.30;;;;;;;0.50;85.28;97606.11;1854530;76;20920;-76
2020/12/13 10:14:30;;;;;;;61.42;29.82;;;;;;;0.55;85.14;97614.78;1854341;76;20908;-76
2020/12/13 10:16:56;;;;;;;121.72;78.35;;;;;;;0.58;84.81;97617.52;1823831;77;20900;-76
2020/12/13 10:19:22;;;;;;;65.57;43.08;;;;;;;0.55;84.62;97620.93;1854385;76;21796;-78
2020/12/13 10:21:49;;;;;;;55.20;30.08;;;;;;;0.55;84.74;97614.78;1854450;77;20904;-78
2020/12/13 10:24:15;;;;;;;57.17;28.42;;;;;;;0.54;84.81;97616.64;1823945;77;21602;-78
2020/12/13 10:26:41;;;;;;;65.15;34.35;;;;;;;0.56;84.83;97623.88;1854253;76;20848;-78
2020/12/13 10:29:08;;;;;;;61.88;33.38;;;;;;;0.62;85.03;97621.37;1854581;76;21161;-76
2020/12/13 10:31:41;;;;;;;57.88;28.70;;;;;;;0.63;84.65;97618.99;1854466;76;21433;-76
2020/12/13 10:34:09;;;;;;;53.35;25.70;;;;;;;0.53;84.42;97620.34;1854279;76;21165;-76
2020/12/13 10:36:36;;;;;;;57.63;28.13;;;;;;;0.36;84.45;97618.00;1854688;76;21043;-78
2020/12/13 10:39:04;;;;;;;57.23;30.02;;;;;;;0.26;84.74;97617.20;1854279;77;21612;-78
2020/12/13 10:41:30;;;;;;;52.87;26.27;;;;;;;0.26;84.81;97614.54;1854707;76;21582;-78
2020/12/13 10:43:56;;;;;;;48.98;24.70;;;;;;;0.25;84.88;97614.73;1854507;76;21198;-76
2020/12/13 10:46:22;;;;;;;48.68;22.62;;;;;;;0.27;84.98;97613.50;1823422;77;20903;-78
2020/12/13 10:48:48;;;;;;;54.67;29.50;;;;;;;0.28;84.88;97611.12;1854423;77;21640;-76
2020/12/13 10:51:15;;;;;;;57.20;27.62;;;;;;;0.38;84.84;97613.78;1854270;76;21002;-79
2020/12/13 10:53:41;;;;;;;55.03;26.40;;;;;;;0.35;84.86;97615.05;1854463;76;21078;-79
2020/12/13 10:56:07;;;;;;;77.85;37.13;;;;;;;0.38;84.92;97615.92;1854475;76;21195;-76
2020/12/13 10:58:33;;;;;;;90.95;42.95;;;;;;;0.45;84.90;97613.18;1854498;77;20864;-78
2020/12/13 11:01:04;;;;;;;105.10;40.10;;;;;;;0.50;85.08;97613.30;1823560;77;20986;-76
2020/12/13 11:03:28;;;;;;;51.50;26.35;;;;;;;0.59;84.68;97622.61;1852948;77;21561;-76
2020/12/13 11:05:54;;;;;;;72.30;34.85;;;;;;;0.51;84.22;97609.59;1854461;76;21027;-76
2020/12/13 11:08:22;;;;;;;71.20;29.55;;;;;;;0.41;84.48;97610.66;1822235;77;21409;-78
2020/12/13 11:10:50;;;;;;;52.60;27.35;;;;;;;0.43;84.61;97612.59;1854170;76;21137;-76
2020/12/13 11:13:16;;;;;;;59.13;28.90;;;;;;;0.41;84.65;97613.31;1854821;76;21142;-78
2020/12/13 11:15:46;;;;;;;51.65;29.23;;;;;;;0.33;84.66;97613.63;1854391;76;20919;-78
2020/12/13 11:18:11;;;;;;;79.42;37.00;;;;;;;0.33;84.76;97613.63;1854369;76;21193;-78
2020/12/13 11:20:37;;;;;;;89.35;41.88;;;;;;;0.26;84.66;97613.20;1854475;76;21225;-76
2020/12/13 11:23:03;;;;;;;77.30;37.10;;;;;;;0.25;84.88;97614.22;1854409;76;21830;-78
2020/12/13 11:25:29;;;;;;;91.72;48.98;;;;;;;0.31;85.28;97620.52;1823697;77;21141;-76